Sea Cloud — 9HOM2 — position and weather

sailwx.info

Track history (hours):
 
Tides and Currents Weather Stations Pressure Air Temp Water Temp Dewpoint Dewpoint Depression Visibility Wind Speed Wind Dir Waves Ship Positions

Sea Cloud

Ship's website: http://www.seacloud.com/en/the-ships/sea-cloud.html

Last reported at 2017-Dec-23 16:42 UTC. Time now 2018-Jan-24 01:26 UTC.
Position N 09°11' W 079°52'.
Warning: this ship's position is 31 days out of date.

Length 110 m; draft 5.3 m.

Type: Ship. MMSI: 256084000.

Date/timePositionNaut miles runAvg speedWind from/ knotsBaromVisibWave heightAir tempDewpointWater temp
2017-Dec-23 16:42N 09°11' W 079°52'1 7.3
2017-Dec-23 16:30N 09°11' W 079°53'3 5.8
2017-Dec-23 15:56N 09°14' W 079°56'0 0.0
2017-Dec-23 15:26N 09°14' W 079°56'0 0.0
2017-Dec-23 15:00N 09°14' W 079°56'3 1.1
2017-Dec-23 12:06N 09°17' W 079°55'0 1.9
2017-Dec-23 11:52N 09°17' W 079°55'1 3.7
2017-Dec-23 11:31N 09°19' W 079°55'3 5.0
2017-Dec-23 10:59N 09°21' W 079°55'0 0.0
2017-Dec-23 10:29N 09°21' W 079°55'0 0.0
2017-Dec-23 09:59N 09°21' W 079°55'0 0.0
2017-Dec-23 09:29N 09°21' W 079°55'0 0.0
2017-Dec-23 08:53N 09°21' W 079°55'0 0.0
2017-Dec-23 08:29N 09°21' W 079°55'0 0.0
2017-Dec-23 07:59N 09°21' W 079°55'0 0.0
2017-Dec-23 07:29N 09°21' W 079°55'0 0.0
2017-Dec-23 06:59N 09°21' W 079°55'0 0.0
2017-Dec-23 06:29N 09°21' W 079°55'0 0.0
2017-Dec-23 05:59N 09°21' W 079°55'0 0.0
2017-Dec-23 05:29N 09°21' W 079°55'0 0.0
2017-Dec-23 04:59N 09°21' W 079°55'0 0.0
2017-Dec-23 04:29N 09°21' W 079°55'0 0.0
2017-Dec-23 03:59N 09°21' W 079°55'0 0.0
2017-Dec-23 03:30N 09°21' W 079°55'0 0.0
2017-Dec-23 03:00N 09°21' W 079°55'0 0.0
2017-Dec-23 02:30N 09°21' W 079°55'0 0.0
2017-Dec-23 02:00N 09°21' W 079°55'0 0.0
2017-Dec-23 01:30N 09°21' W 079°55'0 0.0
2017-Dec-23 01:00N 09°21' W 079°55'0 0.0
2017-Dec-23 00:30N 09°21' W 079°55'0 0.0
2017-Dec-22 23:59N 09°21' W 079°55'0 0.0
2017-Dec-22 23:29N 09°21' W 079°55'0 0.0
2017-Dec-22 23:00N 09°21' W 079°55'0 0.0
2017-Dec-22 22:09N 09°21' W 079°55'0 0.0
2017-Dec-22 21:51N 09°21' W 079°55'0 0.0
2017-Dec-22 21:27N 09°21' W 079°55'0 0.0
2017-Dec-22 20:57N 09°21' W 079°55'0 0.0
2017-Dec-22 20:27N 09°21' W 079°55'0 0.0
2017-Dec-22 19:57N 09°21' W 079°55'0 0.0
2017-Dec-22 19:27N 09°21' W 079°55'0 0.0
2017-Dec-22 18:57N 09°21' W 079°55'0 0.0
2017-Dec-22 18:27N 09°21' W 079°55'0 0.0
2017-Dec-22 17:51N 09°21' W 079°55'0 0.0
2017-Dec-22 17:27N 09°21' W 079°55'0 0.0
2017-Dec-22 16:57N 09°21' W 079°55'0 0.0
2017-Dec-22 16:27N 09°21' W 079°55'0 0.0
2017-Dec-22 15:57N 09°21' W 079°55'0 0.0
2017-Dec-22 15:27N 09°21' W 079°55'0 0.0
2017-Dec-22 14:57N 09°21' W 079°55'0 0.0
2017-Dec-22 14:27N 09°21' W 079°55'0 0.0
2017-Dec-22 14:00N 09°21' W 079°55'0 0.0
2017-Dec-22 13:30N 09°21' W 079°55'0 0.0
2017-Dec-22 13:00N 09°21' W 079°55'0 0.1
2017-Dec-22 12:30N 09°21' W 079°55'1 1.3
2017-Dec-22 12:00N 09°22' W 079°55'3 5.5
2017-Dec-22 11:30N 09°24' W 079°55'3 5.3
2017-Dec-22 11:00N 09°27' W 079°55'2 4.9
2017-Dec-22 10:30N 09°29' W 079°54'4 6.9
2017-Dec-22 09:54N 09°33' W 079°52'3 7.1
2017-Dec-22 09:30N 09°36' W 079°52'  
2017-Dec-20 05:21N 10°18' W 075°43'410.8
2017-Dec-20 04:59N 10°19' W 075°40'510.2
2017-Dec-20 04:30N 10°19' W 075°35'5 8.9
2017-Dec-20 04:00N 10°23' W 075°32'1 0.2
2017-Dec-19 19:31N 10°24' W 075°32'0 0.0
2017-Dec-19 19:25N 10°24' W 075°32'0 0.0
2017-Dec-19 18:55N 10°24' W 075°32'0 0.0
2017-Dec-19 18:25N 10°24' W 075°32'0 0.0
2017-Dec-19 17:55N 10°24' W 075°32'1 3.3
2017-Dec-19 17:30N 10°23' W 075°32'4 8.5
2017-Dec-19 17:00N 10°19' W 075°34'510.0
2017-Dec-19 16:30N 10°19' W 075°39'5 9.5
2017-Dec-19 16:00N 10°19' W 075°44'19 4.6
2017-Dec-19 11:56N 10°38' W 075°41'4 7.6
2017-Dec-19 11:21N 10°41' W 075°39'3 8.7
2017-Dec-19 10:59N 10°44' W 075°37'10710.7
2017-Dec-19 01:02N 11°36' W 074°02'0 9.2
2017-Dec-19 01:00N 11°36' W 074°01'5 9.3
2017-Dec-19 00:30N 11°38' W 073°57'5 9.4
2017-Dec-19 00:00N 11°39' W 073°52'5 9.4
2017-Dec-18 23:30N 11°40' W 073°48'80 7.0
2017-Dec-18 12:06N 12°25' W 072°41'1 8.9
2017-Dec-18 11:59N 12°26' W 072°40'  
Track history (hours):
 
Tides and Currents Weather Stations Pressure Air Temp Water Temp Dewpoint Dewpoint Depression Visibility Wind Speed Wind Dir Waves Ship Positions

Sea Cloud

Ship's website: http://www.seacloud.com/en/the-ships/sea-cloud.html

Last reported at 2017-Dec-23 16:42 UTC. Time now 2018-Jan-24 01:26 UTC.
Position N 09°11' W 079°52'.
Warning: this ship's position is 31 days out of date.

Length 110 m; draft 5.3 m.

Type: Ship. MMSI: 256084000.

Date/timePositionNaut miles runAvg speedWind from/ knotsBaromVisibWave heightAir tempDewpointWater temp
2017-Dec-23 16:42N 09°11' W 079°52'1 7.3
2017-Dec-23 16:30N 09°11' W 079°53'3 5.8
2017-Dec-23 15:56N 09°14' W 079°56'0 0.0
2017-Dec-23 15:26N 09°14' W 079°56'0 0.0
2017-Dec-23 15:00N 09°14' W 079°56'3 1.1
2017-Dec-23 12:06N 09°17' W 079°55'0 1.9
2017-Dec-23 11:52N 09°17' W 079°55'1 3.7
2017-Dec-23 11:31N 09°19' W 079°55'3 5.0
2017-Dec-23 10:59N 09°21' W 079°55'0 0.0
2017-Dec-23 10:29N 09°21' W 079°55'0 0.0
2017-Dec-23 09:59N 09°21' W 079°55'0 0.0
2017-Dec-23 09:29N 09°21' W 079°55'0 0.0
2017-Dec-23 08:53N 09°21' W 079°55'0 0.0
2017-Dec-23 08:29N 09°21' W 079°55'0 0.0
2017-Dec-23 07:59N 09°21' W 079°55'0 0.0
2017-Dec-23 07:29N 09°21' W 079°55'0 0.0
2017-Dec-23 06:59N 09°21' W 079°55'0 0.0
2017-Dec-23 06:29N 09°21' W 079°55'0 0.0
2017-Dec-23 05:59N 09°21' W 079°55'0 0.0
2017-Dec-23 05:29N 09°21' W 079°55'0 0.0
2017-Dec-23 04:59N 09°21' W 079°55'0 0.0
2017-Dec-23 04:29N 09°21' W 079°55'0 0.0
2017-Dec-23 03:59N 09°21' W 079°55'0 0.0
2017-Dec-23 03:30N 09°21' W 079°55'0 0.0
2017-Dec-23 03:00N 09°21' W 079°55'0 0.0
2017-Dec-23 02:30N 09°21' W 079°55'0 0.0
2017-Dec-23 02:00N 09°21' W 079°55'0 0.0
2017-Dec-23 01:30N 09°21' W 079°55'0 0.0
2017-Dec-23 01:00N 09°21' W 079°55'0 0.0
2017-Dec-23 00:30N 09°21' W 079°55'0 0.0
2017-Dec-22 23:59N 09°21' W 079°55'0 0.0
2017-Dec-22 23:29N 09°21' W 079°55'0 0.0
2017-Dec-22 23:00N 09°21' W 079°55'0 0.0
2017-Dec-22 22:09N 09°21' W 079°55'0 0.0
2017-Dec-22 21:51N 09°21' W 079°55'0 0.0
2017-Dec-22 21:27N 09°21' W 079°55'0 0.0
2017-Dec-22 20:57N 09°21' W 079°55'0 0.0
2017-Dec-22 20:27N 09°21' W 079°55'0 0.0
2017-Dec-22 19:57N 09°21' W 079°55'0 0.0
2017-Dec-22 19:27N 09°21' W 079°55'0 0.0
2017-Dec-22 18:57N 09°21' W 079°55'0 0.0
2017-Dec-22 18:27N 09°21' W 079°55'0 0.0
2017-Dec-22 17:51N 09°21' W 079°55'0 0.0
2017-Dec-22 17:27N 09°21' W 079°55'0 0.0
2017-Dec-22 16:57N 09°21' W 079°55'0 0.0
2017-Dec-22 16:27N 09°21' W 079°55'0 0.0
2017-Dec-22 15:57N 09°21' W 079°55'0 0.0
2017-Dec-22 15:27N 09°21' W 079°55'0 0.0
2017-Dec-22 14:57N 09°21' W 079°55'0 0.0
2017-Dec-22 14:27N 09°21' W 079°55'0 0.0
2017-Dec-22 14:00N 09°21' W 079°55'0 0.0
2017-Dec-22 13:30N 09°21' W 079°55'0 0.0
2017-Dec-22 13:00N 09°21' W 079°55'0 0.1
2017-Dec-22 12:30N 09°21' W 079°55'1 1.3
2017-Dec-22 12:00N 09°22' W 079°55'3 5.5
2017-Dec-22 11:30N 09°24' W 079°55'3 5.3
2017-Dec-22 11:00N 09°27' W 079°55'2 4.9
2017-Dec-22 10:30N 09°29' W 079°54'4 6.9
2017-Dec-22 09:54N 09°33' W 079°52'3 7.1
2017-Dec-22 09:30N 09°36' W 079°52'  
2017-Dec-20 05:21N 10°18' W 075°43'410.8
2017-Dec-20 04:59N 10°19' W 075°40'510.2
2017-Dec-20 04:30N 10°19' W 075°35'5 8.9
2017-Dec-20 04:00N 10°23' W 075°32'1 0.2
2017-Dec-19 19:31N 10°24' W 075°32'0 0.0
2017-Dec-19 19:25N 10°24' W 075°32'0 0.0
2017-Dec-19 18:55N 10°24' W 075°32'0 0.0
2017-Dec-19 18:25N 10°24' W 075°32'0 0.0
2017-Dec-19 17:55N 10°24' W 075°32'1 3.3
2017-Dec-19 17:30N 10°23' W 075°32'4 8.5
2017-Dec-19 17:00N 10°19' W 075°34'510.0
2017-Dec-19 16:30N 10°19' W 075°39'5 9.5
2017-Dec-19 16:00N 10°19' W 075°44'19 4.6
2017-Dec-19 11:56N 10°38' W 075°41'4 7.6
2017-Dec-19 11:21N 10°41' W 075°39'3 8.7
2017-Dec-19 10:59N 10°44' W 075°37'10710.7
2017-Dec-19 01:02N 11°36' W 074°02'0 9.2
2017-Dec-19 01:00N 11°36' W 074°01'5 9.3
2017-Dec-19 00:30N 11°38' W 073°57'5 9.4
2017-Dec-19 00:00N 11°39' W 073°52'5 9.4
2017-Dec-18 23:30N 11°40' W 073°48'80 7.0
2017-Dec-18 12:06N 12°25' W 072°41'1 8.9
2017-Dec-18 11:59N 12°26' W 072°40'  

Dump ship's entire track history